createdAt,value
2023-01-22T00:01:39.898Z,1.60
2023-01-22T00:04:06.900Z,1.60
2023-01-22T00:06:33.453Z,1.60
2023-01-22T00:09:04.108Z,1.50
2023-01-22T00:11:31.253Z,1.50
2023-01-22T00:13:58.147Z,1.50
2023-01-22T00:16:24.648Z,1.40
2023-01-22T00:18:51.570Z,1.40
2023-01-22T00:21:18.555Z,1.50
2023-01-22T00:23:45.022Z,1.50
2023-01-22T00:26:12.938Z,1.50
2023-01-22T00:28:41.518Z,1.50
2023-01-22T00:31:08.930Z,1.50
2023-01-22T00:33:35.517Z,1.50
2023-01-22T00:36:06.636Z,1.40
2023-01-22T00:38:33.208Z,1.40
2023-01-22T00:41:03.844Z,1.40
2023-01-22T00:43:31.190Z,1.40
2023-01-22T00:45:57.646Z,1.40
2023-01-22T00:48:24.638Z,1.40
2023-01-22T00:50:51.593Z,1.50
2023-01-22T00:53:18.056Z,1.50
2023-01-22T00:55:51.915Z,1.50
2023-01-22T00:58:18.626Z,1.50
2023-01-22T01:00:45.568Z,1.50
2023-01-22T01:03:27.433Z,1.50
2023-01-22T01:05:54.854Z,1.50
2023-01-22T01:08:22.079Z,1.50
2023-01-22T01:10:48.597Z,1.50
2023-01-22T01:13:15.506Z,1.40
2023-01-22T01:15:43.165Z,1.40
2023-01-22T01:18:14.650Z,1.40
2023-01-22T01:20:41.423Z,1.40
2023-01-22T01:23:07.914Z,1.40
2023-01-22T01:25:34.874Z,1.40
2023-01-22T01:28:01.375Z,1.40
2023-01-22T01:30:28.271Z,1.40
2023-01-22T01:32:55.186Z,1.40
2023-01-22T01:35:24.248Z,1.40
2023-01-22T01:37:52.308Z,1.40
2023-01-22T01:40:19.467Z,1.40
2023-01-22T01:42:46.092Z,1.40
2023-01-22T01:45:21.988Z,1.30
2023-01-22T01:47:50.013Z,1.30
2023-01-22T01:50:18.823Z,1.30
2023-01-22T01:52:45.476Z,1.40
2023-01-22T01:55:13.060Z,1.40
2023-01-22T01:57:40.777Z,1.40
2023-01-22T02:00:10.889Z,1.40
2023-01-22T02:02:37.831Z,1.40
2023-01-22T02:05:05.597Z,1.40
2023-01-22T02:07:32.518Z,1.40
2023-01-22T02:09:59.059Z,1.40
2023-01-22T02:12:26.020Z,1.50
2023-01-22T02:14:52.919Z,1.50
2023-01-22T02:17:20.991Z,1.60
2023-01-22T02:19:48.406Z,1.60
2023-01-22T02:22:18.128Z,1.60
2023-01-22T02:24:45.192Z,1.70
2023-01-22T02:27:11.895Z,1.70
2023-01-22T02:29:38.972Z,1.70
2023-01-22T02:32:06.198Z,1.80
2023-01-22T02:34:33.133Z,1.80
2023-01-22T02:36:59.591Z,1.80
2023-01-22T02:39:26.493Z,1.80
2023-01-22T02:41:53.559Z,1.90
2023-01-22T02:44:20.507Z,1.90
2023-01-22T02:46:47.452Z,1.70
2023-01-22T02:49:13.946Z,1.90
2023-01-22T02:51:40.883Z,2.00
2023-01-22T02:54:07.857Z,2.00
2023-01-22T02:56:34.769Z,2.00
2023-01-22T02:59:02.186Z,2.00
2023-01-22T03:01:28.677Z,2.00
2023-01-22T03:03:57.038Z,2.00
2023-01-22T03:06:25.369Z,2.00
2023-01-22T03:08:56.077Z,2.10
2023-01-22T03:11:25.826Z,2.10
2023-01-22T03:14:11.648Z,2.10
2023-01-22T03:16:57.316Z,2.10
2023-01-22T03:19:42.733Z,2.10
2023-01-22T03:22:10.517Z,2.10
2023-01-22T03:24:37.444Z,2.10
2023-01-22T03:27:04.538Z,2.10
2023-01-22T03:29:31.443Z,2.10
2023-01-22T03:31:58.001Z,2.20
2023-01-22T03:34:25.511Z,2.20
2023-01-22T03:36:52.407Z,2.20
2023-01-22T03:39:18.878Z,2.20
2023-01-22T03:41:45.766Z,2.20
2023-01-22T03:44:14.117Z,2.20
2023-01-22T03:46:40.876Z,2.20
2023-01-22T03:49:08.332Z,2.20
2023-01-22T03:51:35.297Z,2.20
2023-01-22T03:54:01.745Z,2.20
2023-01-22T03:56:28.923Z,2.20
2023-01-22T03:58:56.207Z,2.20
2023-01-22T04:01:27.683Z,2.20
2023-01-22T04:03:54.973Z,2.20
2023-01-22T04:06:21.947Z,2.30
2023-01-22T04:08:49.760Z,2.30
2023-01-22T04:11:16.304Z,2.30
2023-01-22T04:13:43.916Z,2.30
2023-01-22T04:16:11.171Z,2.30
2023-01-22T04:18:38.267Z,2.30
2023-01-22T04:21:05.736Z,2.30
2023-01-22T04:23:32.679Z,2.30
2023-01-22T04:25:59.146Z,2.30
2023-01-22T04:28:25.595Z,2.30
2023-01-22T04:30:53.782Z,2.30
2023-01-22T04:33:20.497Z,2.30
2023-01-22T04:35:54.528Z,2.40
2023-01-22T04:38:20.996Z,2.30
2023-01-22T04:40:47.907Z,2.30
2023-01-22T04:43:14.407Z,2.40
2023-01-22T04:45:41.343Z,2.40
2023-01-22T04:48:09.597Z,2.40
2023-01-22T04:50:36.067Z,2.40
2023-01-22T04:53:02.977Z,2.40
2023-01-22T04:55:30.366Z,2.40
2023-01-22T04:57:58.550Z,2.40
2023-01-22T05:00:25.707Z,2.40
2023-01-22T05:02:56.360Z,2.40
2023-01-22T05:05:23.273Z,2.40
2023-01-22T05:07:49.949Z,2.40
2023-01-22T05:10:17.269Z,2.40
2023-01-22T05:12:44.366Z,2.40
2023-01-22T05:15:23.231Z,2.40
2023-01-22T05:17:51.198Z,2.40
2023-01-22T05:20:18.170Z,2.40
2023-01-22T05:22:45.197Z,2.40
2023-01-22T05:25:12.015Z,2.50
2023-01-22T05:27:38.880Z,2.40
2023-01-22T05:30:06.588Z,2.50
2023-01-22T05:32:33.507Z,2.50
2023-01-22T05:35:00.516Z,2.50
2023-01-22T05:37:27.003Z,1.20
2023-01-22T05:39:53.959Z,2.50
2023-01-22T05:42:21.422Z,2.50
2023-01-22T05:44:48.291Z,2.50
2023-01-22T05:47:15.550Z,2.50
2023-01-22T05:49:42.392Z,2.50
2023-01-22T05:52:11.810Z,2.50
2023-01-22T05:54:39.578Z,2.50
2023-01-22T05:57:06.512Z,2.50
2023-01-22T05:59:32.970Z,2.50
2023-01-22T06:01:59.855Z,2.50
2023-01-22T06:04:26.359Z,2.50
2023-01-22T06:06:53.229Z,2.50
2023-01-22T06:09:19.884Z,2.50
2023-01-22T06:11:46.795Z,2.50
2023-01-22T06:14:13.735Z,2.50
2023-01-22T06:16:40.262Z,2.60
2023-01-22T06:19:06.839Z,2.60
2023-01-22T06:21:33.712Z,2.70
2023-01-22T06:24:00.165Z,2.60
2023-01-22T06:26:26.627Z,2.60
2023-01-22T06:31:42.561Z,2.60
2023-01-22T06:34:09.569Z,2.60
2023-01-22T06:36:36.192Z,2.60
2023-01-22T06:39:02.734Z,2.60
2023-01-22T06:41:29.678Z,2.60
2023-01-22T06:43:56.163Z,2.60
2023-01-22T06:46:23.079Z,2.60
2023-01-22T06:48:50.061Z,2.60
2023-01-22T06:51:17.256Z,2.60
2023-01-22T06:53:43.828Z,2.60
2023-01-22T06:56:10.298Z,2.60
2023-01-22T06:58:37.593Z,2.60
2023-01-22T07:01:05.384Z,2.70
2023-01-22T07:03:32.474Z,2.70
2023-01-22T07:05:59.927Z,2.60
2023-01-22T07:08:27.245Z,2.60
2023-01-22T07:10:53.700Z,2.60
2023-01-22T07:13:20.694Z,2.60
2023-01-22T07:15:47.191Z,2.60
2023-01-22T07:18:14.894Z,2.60
2023-01-22T07:20:42.160Z,2.60
2023-01-22T07:23:09.334Z,2.60
2023-01-22T07:25:36.270Z,2.60
2023-01-22T07:28:05.945Z,2.60
2023-01-22T07:30:32.666Z,2.60
2023-01-22T07:33:00.230Z,2.60
2023-01-22T07:35:27.615Z,2.60
2023-01-22T07:37:54.641Z,2.60
2023-01-22T07:40:21.613Z,2.60
2023-01-22T07:42:48.073Z,2.60
2023-01-22T07:45:15.064Z,2.50
2023-01-22T07:47:41.995Z,2.60
2023-01-22T07:50:09.105Z,2.60
2023-01-22T07:52:35.559Z,2.50
2023-01-22T07:55:02.434Z,2.60
2023-01-22T07:57:28.879Z,2.60
2023-01-22T07:59:55.740Z,2.60
2023-01-22T08:02:22.280Z,2.60
2023-01-22T08:04:48.775Z,2.60
2023-01-22T08:07:17.499Z,2.60
2023-01-22T08:09:44.141Z,2.60
2023-01-22T08:12:11.119Z,2.60
2023-01-22T08:14:37.614Z,2.60
2023-01-22T08:17:04.171Z,2.60
2023-01-22T08:19:31.148Z,2.60
2023-01-22T08:21:58.037Z,2.60
2023-01-22T08:24:24.544Z,2.60
2023-01-22T08:26:51.080Z,2.60
2023-01-22T08:29:18.043Z,2.60
2023-01-22T08:31:45.335Z,2.60
2023-01-22T08:34:12.026Z,2.60
2023-01-22T08:36:38.532Z,2.60
2023-01-22T08:39:05.423Z,2.60
2023-01-22T08:41:32.296Z,2.70
2023-01-22T08:43:59.117Z,2.70
2023-01-22T08:46:25.578Z,2.70
2023-01-22T08:48:52.475Z,2.70
2023-01-22T08:51:19.279Z,2.70
2023-01-22T08:53:46.173Z,2.70
2023-01-22T08:56:14.038Z,2.80
2023-01-22T08:58:40.909Z,2.80
2023-01-22T09:01:07.402Z,2.80
2023-01-22T09:03:33.925Z,2.80
2023-01-22T09:06:00.796Z,2.80
2023-01-22T09:08:27.247Z,2.80
2023-01-22T09:10:54.133Z,2.70
2023-01-22T09:13:20.602Z,2.70
2023-01-22T09:15:47.542Z,2.80
2023-01-22T09:18:14.044Z,2.80
2023-01-22T09:20:41.542Z,2.80
2023-01-22T09:23:08.101Z,2.80
2023-01-22T09:25:34.966Z,2.80
2023-01-22T09:28:01.677Z,2.80
2023-01-22T09:30:29.927Z,2.80
2023-01-22T09:32:56.937Z,2.80
2023-01-22T09:35:24.067Z,2.80
2023-01-22T09:37:50.955Z,2.80
2023-01-22T09:40:39.937Z,2.80
2023-01-22T09:43:07.621Z,2.80
2023-01-22T09:45:37.171Z,2.80
2023-01-22T09:48:10.741Z,2.80
2023-01-22T09:50:37.700Z,2.80
2023-01-22T09:53:07.351Z,2.80
2023-01-22T09:55:39.083Z,2.80
2023-01-22T09:58:10.538Z,2.80
2023-01-22T10:00:42.218Z,2.80
2023-01-22T10:03:22.717Z,2.80
2023-01-22T10:05:56.277Z,2.80
2023-01-22T10:08:24.556Z,2.80
2023-01-22T10:10:52.461Z,2.80
2023-01-22T10:13:18.915Z,2.90
2023-01-22T10:15:45.553Z,2.90
2023-01-22T10:18:27.651Z,3.00
2023-01-22T10:20:54.882Z,3.00
2023-01-22T10:23:23.308Z,3.10
2023-01-22T10:25:51.629Z,3.10
2023-01-22T10:28:23.308Z,3.20
2023-01-22T10:30:50.712Z,3.20
2023-01-22T10:33:18.235Z,3.20
2023-01-22T10:35:48.405Z,3.20
2023-01-22T10:38:28.392Z,3.20
2023-01-22T10:40:56.568Z,3.20
2023-01-22T10:43:31.770Z,3.20
2023-01-22T10:46:04.969Z,3.20
2023-01-22T10:48:32.195Z,3.10
2023-01-22T10:51:13.036Z,3.20
2023-01-22T10:53:48.790Z,3.20
2023-01-22T10:56:28.985Z,4.10
2023-01-22T10:58:57.354Z,3.20
2023-01-22T11:01:28.799Z,3.20
2023-01-22T11:03:56.852Z,4.30
2023-01-22T11:06:28.879Z,3.20
2023-01-22T11:09:08.675Z,3.20
2023-01-22T11:11:41.364Z,3.20
2023-01-22T11:14:23.419Z,3.20
2023-01-22T11:17:04.123Z,3.10
2023-01-22T11:19:37.732Z,3.20
2023-01-22T11:22:06.829Z,3.20
2023-01-22T11:24:43.344Z,3.20
2023-01-22T11:27:19.884Z,3.10
2023-01-22T11:30:05.538Z,3.20
2023-01-22T11:32:54.667Z,3.20
2023-01-22T11:35:48.173Z,3.20
2023-01-22T11:38:33.996Z,3.20
2023-01-22T11:41:12.873Z,3.20
2023-01-22T11:43:56.074Z,3.10
2023-01-22T11:46:41.891Z,3.10
2023-01-22T11:49:15.022Z,3.20
2023-01-22T11:52:07.737Z,3.20
2023-01-22T11:54:37.386Z,3.20
2023-01-22T12:04:21.981Z,3.20
2023-01-22T12:07:07.259Z,3.30
2023-01-22T12:09:46.909Z,3.30
2023-01-22T12:12:33.641Z,3.30
2023-01-22T12:15:27.249Z,3.30
2023-01-22T12:18:18.293Z,3.30
2023-01-22T12:21:06.097Z,3.30
2023-01-22T12:24:09.925Z,3.30
2023-01-22T12:26:49.947Z,3.30
2023-01-22T12:33:13.535Z,3.30
2023-01-22T12:39:08.013Z,3.30
2023-01-22T12:41:51.608Z,3.40
2023-01-22T12:44:27.690Z,3.40
2023-01-22T12:47:16.509Z,3.50
2023-01-22T12:49:50.368Z,3.40
2023-01-22T12:52:29.594Z,3.40
2023-01-22T12:54:56.355Z,3.40
2023-01-22T12:57:25.039Z,3.40
2023-01-22T12:59:55.924Z,3.50
2023-01-22T13:02:29.263Z,3.40
2023-01-22T13:05:08.792Z,3.40
2023-01-22T13:07:57.029Z,3.40
2023-01-22T13:10:26.439Z,3.40
2023-01-22T13:12:53.998Z,3.40
2023-01-22T13:15:22.731Z,3.40
2023-01-22T13:18:06.153Z,3.40
2023-01-22T13:20:40.071Z,3.40
2023-01-22T13:23:37.453Z,3.50
2023-01-22T13:26:26.156Z,3.50
2023-01-22T13:28:58.983Z,3.50
2023-01-22T13:34:15.484Z,3.40
2023-01-22T13:37:13.472Z,3.40
2023-01-22T13:40:02.783Z,2.60
2023-01-22T13:49:43.648Z,3.30
2023-01-22T14:19:10.737Z,3.30
2023-01-22T14:53:31.826Z,3.20
2023-01-22T15:06:37.719Z,3.20
2023-01-22T15:23:30.573Z,3.20
2023-01-22T15:25:59.068Z,2.20
2023-01-22T15:42:18.896Z,3.10
2023-01-22T15:48:18.754Z,3.00
2023-01-22T15:50:49.237Z,3.00
2023-01-22T15:56:51.667Z,1.50
2023-01-22T16:06:22.465Z,2.90
2023-01-22T16:29:34.173Z,2.90
2023-01-22T16:46:24.310Z,2.90
2023-01-22T16:52:49.231Z,2.90
2023-01-22T16:55:16.813Z,2.90
2023-01-22T16:57:43.280Z,2.90
2023-01-22T17:00:10.167Z,2.90
2023-01-22T17:02:36.733Z,2.90
2023-01-22T17:05:03.775Z,2.90
2023-01-22T17:07:34.087Z,2.90
2023-01-22T17:10:03.490Z,2.90
2023-01-22T17:12:31.681Z,3.00
2023-01-22T17:14:58.972Z,2.90
2023-01-22T17:17:27.499Z,2.90
2023-01-22T17:19:54.052Z,2.90
2023-01-22T17:22:21.018Z,2.90
2023-01-22T17:24:47.909Z,2.90
2023-01-22T17:27:18.278Z,2.90
2023-01-22T17:29:46.270Z,2.90
2023-01-22T17:32:13.171Z,2.90
2023-01-22T17:34:42.184Z,2.90
2023-01-22T17:37:13.454Z,2.90
2023-01-22T17:39:40.771Z,2.90
2023-01-22T17:42:07.900Z,2.90
2023-01-22T17:44:34.998Z,2.90
2023-01-22T17:47:02.728Z,2.90
2023-01-22T17:49:33.246Z,2.90
2023-01-22T17:51:59.751Z,2.90
2023-01-22T17:54:26.250Z,2.90
2023-01-22T17:56:53.243Z,2.90
2023-01-22T17:59:20.757Z,2.90
2023-01-22T18:01:48.602Z,2.90
2023-01-22T18:04:15.179Z,2.90
2023-01-22T18:06:42.944Z,2.90
2023-01-22T18:09:10.754Z,2.90
2023-01-22T18:11:37.882Z,2.90
2023-01-22T18:14:05.976Z,2.90
2023-01-22T18:16:34.091Z,2.90
2023-01-22T18:19:03.592Z,2.90
2023-01-22T18:21:30.790Z,2.90
2023-01-22T18:23:58.892Z,3.00
2023-01-22T18:26:27.259Z,3.00
2023-01-22T18:28:54.857Z,3.00
2023-01-22T18:31:24.103Z,3.00
2023-01-22T18:33:54.187Z,3.00
2023-01-22T18:36:22.917Z,3.00
2023-01-22T18:38:49.760Z,3.00
2023-01-22T18:41:19.359Z,3.00
2023-01-22T18:43:55.032Z,3.00
2023-01-22T18:46:22.518Z,3.00
2023-01-22T18:48:52.810Z,3.00
2023-01-22T18:51:19.838Z,3.00
2023-01-22T18:53:46.329Z,3.00
2023-01-22T18:56:13.434Z,2.90
2023-01-22T18:58:42.594Z,3.00
2023-01-22T19:01:11.722Z,3.00
2023-01-22T19:03:39.451Z,3.00
2023-01-22T19:06:13.966Z,3.00
2023-01-22T19:08:42.183Z,3.00
2023-01-22T19:11:09.128Z,3.00
2023-01-22T19:13:36.446Z,2.90
2023-01-22T19:16:04.411Z,3.00
2023-01-22T19:18:31.260Z,2.90
2023-01-22T19:21:04.597Z,2.90
2023-01-22T19:23:32.239Z,2.90
2023-01-22T19:26:11.245Z,2.90
2023-01-22T19:28:38.138Z,2.90
2023-01-22T19:31:05.890Z,2.90
2023-01-22T19:33:32.541Z,2.90
2023-01-22T19:35:59.542Z,2.90
2023-01-22T19:38:26.020Z,3.00
2023-01-22T19:40:53.840Z,2.90
2023-01-22T19:43:20.306Z,2.90
2023-01-22T19:45:46.872Z,2.90
2023-01-22T19:48:15.871Z,2.90
2023-01-22T19:50:42.807Z,3.00
2023-01-22T19:53:09.425Z,3.00
2023-01-22T19:55:37.496Z,2.90
2023-01-22T19:58:04.714Z,2.90
2023-01-22T20:00:33.118Z,2.90
2023-01-22T20:03:01.633Z,2.90
2023-01-22T20:05:28.211Z,2.90
2023-01-22T20:07:56.361Z,2.90
2023-01-22T20:10:23.303Z,2.90
2023-01-22T20:12:50.008Z,2.90
2023-01-22T20:15:17.193Z,3.00
2023-01-22T20:17:43.836Z,3.00
2023-01-22T20:20:10.663Z,2.90
2023-01-22T20:22:37.565Z,2.90
2023-01-22T20:25:04.212Z,3.00
2023-01-22T20:27:30.746Z,3.00
2023-01-22T20:29:57.698Z,2.90
2023-01-22T20:32:25.218Z,3.00
2023-01-22T20:34:52.496Z,3.00
2023-01-22T20:37:18.953Z,3.00
2023-01-22T20:39:45.932Z,3.00
2023-01-22T20:42:12.407Z,3.00
2023-01-22T20:44:39.814Z,2.90
2023-01-22T20:47:06.851Z,2.90
2023-01-22T20:49:33.775Z,2.90
2023-01-22T20:52:03.311Z,2.90
2023-01-22T20:54:31.099Z,2.90
2023-01-22T20:56:58.426Z,2.90
2023-01-22T20:59:27.579Z,2.90
2023-01-22T21:01:54.316Z,2.90
2023-01-22T21:04:20.882Z,2.90
2023-01-22T21:06:47.420Z,2.90
2023-01-22T21:09:14.029Z,2.90
2023-01-22T21:11:41.535Z,2.90
2023-01-22T21:14:09.695Z,2.90
2023-01-22T21:16:37.607Z,2.80
2023-01-22T21:19:06.119Z,2.80
2023-01-22T21:21:33.471Z,2.80
2023-01-22T21:24:01.918Z,2.80
2023-01-22T21:26:30.069Z,2.80
2023-01-22T21:28:59.429Z,2.70
2023-01-22T21:31:26.583Z,2.70
2023-01-22T21:34:02.662Z,2.70
2023-01-22T21:36:39.789Z,2.70
2023-01-22T21:39:07.619Z,2.70
2023-01-22T21:41:34.376Z,2.70
2023-01-22T21:44:19.757Z,2.70
2023-01-22T21:46:46.982Z,2.70
2023-01-22T21:49:17.521Z,2.60
2023-01-22T21:51:45.855Z,2.70
2023-01-22T21:54:14.226Z,2.70
2023-01-22T21:56:41.228Z,2.70
2023-01-22T21:59:08.952Z,2.70
2023-01-22T22:01:36.486Z,2.70
2023-01-22T22:04:03.675Z,2.70
2023-01-22T22:06:31.206Z,2.70
2023-01-22T22:08:59.618Z,2.70
2023-01-22T22:11:26.957Z,2.70
2023-01-22T22:13:54.556Z,2.70
2023-01-22T22:16:22.094Z,2.70
2023-01-22T22:18:48.693Z,2.70
2023-01-22T22:21:15.996Z,2.70
2023-01-22T22:23:42.630Z,2.70
2023-01-22T22:26:10.893Z,2.70
2023-01-22T22:28:37.783Z,2.60
2023-01-22T22:31:11.979Z,2.60
2023-01-22T22:33:39.594Z,1.60
2023-01-22T22:36:06.960Z,2.60
2023-01-22T22:38:34.159Z,2.60
2023-01-22T22:41:02.692Z,2.60
2023-01-22T22:43:32.805Z,2.60
2023-01-22T22:46:04.081Z,2.60
2023-01-22T22:48:30.721Z,2.60
2023-01-22T22:50:57.847Z,2.60
2023-01-22T22:53:24.522Z,2.60
2023-01-22T22:55:51.481Z,2.60
2023-01-22T22:58:18.699Z,2.60
2023-01-22T23:00:46.070Z,2.60
2023-01-22T23:03:12.674Z,2.60
2023-01-22T23:05:40.077Z,2.60
2023-01-22T23:08:06.657Z,2.70
2023-01-22T23:10:33.663Z,2.60
2023-01-22T23:13:02.093Z,2.60
2023-01-22T23:15:30.108Z,2.60
2023-01-22T23:17:57.565Z,2.70
2023-01-22T23:20:25.276Z,2.70
2023-01-22T23:22:56.067Z,2.70
2023-01-22T23:25:22.755Z,2.70
2023-01-22T23:27:49.769Z,2.70
2023-01-22T23:30:16.344Z,2.70
2023-01-22T23:32:44.724Z,2.70
2023-01-22T23:35:12.013Z,2.70
2023-01-22T23:37:39.118Z,2.60
2023-01-22T23:40:05.861Z,2.60
2023-01-22T23:42:32.785Z,2.60
2023-01-22T23:44:59.254Z,2.60
2023-01-22T23:47:27.500Z,2.60
2023-01-22T23:49:54.017Z,2.60
2023-01-22T23:52:21.502Z,2.60
2023-01-22T23:54:48.035Z,2.60
2023-01-22T23:57:15.080Z,2.60
2023-01-22T23:59:41.541Z,2.60
